Flight Track Log - Related Links

Times and Time Zones

All times are in EDT time to prevent confusion due to time zone crossing. See the EJA396 flight status page for this flight to view local times or setup timezone preferences in your user account.

Time Position Orientation Groundspeed Altitude Reporting Facility
EDT Latitude Longitude Course Direction KTS MPH feet Rate Location/Type
Tue 07:38:51 AM 33.8500 -84.3333 258° West 208 239 2,500  Level Atlanta TRACON
Tue 07:39:51 AM 33.8833 -84.3833 309° West 214 246 4,300 2,400 Climbing Atlanta TRACON
Tue 07:40:51 AM 33.8667 -84.4667 256° West 235 270 7,300 2,741 Climbing Atlanta TRACON
Tue 07:43:08 AM 33.8136 -84.6764 253° West 316 364 13,300 2,602 Climbing Atlanta Center
Tue 07:44:00 AM 33.7519 -84.9229 258° West  Level FlightAware Approximate
Tue 07:44:07 AM 33.7939 -84.7961 259° West 356 410 15,800  Level Atlanta Center
Tue 07:45:07 AM 33.7869 -84.9286 266° West 379 436 18,500 2,650 Climbing Atlanta Center
Tue 07:46:07 AM 33.7797 -85.0561 266° West 392 451 21,100 2,350 Climbing Atlanta Center
Tue 07:47:07 AM 33.7744 -85.1858 267° West 392 451 23,200 1,950 Climbing Atlanta Center
Tue 07:48:07 AM 33.7667 -85.3208 266° West 406 467 25,000 1,700 Climbing Atlanta Center
Tue 07:49:07 AM 33.7589 -85.4756 267° West 412 474 26,600 1,488 Climbing Atlanta Center
Tue 07:50:08 AM 33.7508 -85.6178 266° West 423 487 28,000 1,400 Climbing Atlanta Center
Tue 07:51:07 AM 33.7425 -85.7650 266° West 434 499 29,400 1,462 Climbing Atlanta Center
Tue 07:52:07 AM 33.7322 -85.9072 265° West 439 505 30,900 1,400 Climbing Atlanta Center
Tue 07:53:07 AM 33.7214 -86.0519 265° West 439 505 32,200 1,250 Climbing Atlanta Center
Tue 07:54:07 AM 33.7189 -86.1967 269° West 444 511 33,400 1,250 Climbing Atlanta Center
Tue 07:55:07 AM 33.7436 -86.3397 282° West 438 504 34,700 1,200 Climbing Atlanta Center
Tue 07:56:07 AM 33.7722 -86.4778 284° West 438 504 35,800 1,150 Climbing Atlanta Center
Tue 07:57:07 AM 33.7964 -86.6186 282° West 433 498 37,000 600 Climbing Atlanta Center
Tue 07:58:07 AM 33.8247 -86.7544 284° West 428 493 37,000  Level Atlanta Center
Tue 07:59:07 AM 33.8489 -86.8928 282° West 428 493 37,000  Level Atlanta Center
Tue 08:00:57 AM 33.8978 -87.1564 283° West 462 532 37,000 212 Level Memphis Center
Tue 08:01:57 AM 33.9239 -87.2881 283° West 432 497 37,600 800 Climbing Memphis Center
Tue 08:02:57 AM 33.9522 -87.4250 284° West 415 478 38,600 1,000 Climbing Memphis Center
Tue 08:03:57 AM 33.9761 -87.5594 282° West 415 478 39,600 850 Climbing Memphis Center
Tue 08:04:57 AM 33.9956 -87.6789 281° West 409 471 40,300 750 Climbing Memphis Center
Tue 08:05:57 AM 34.0169 -87.8086 281° West 409 471 41,100 800 Climbing Memphis Center
Tue 08:06:57 AM 34.0447 -87.9356 285° West 404 465 41,900 750 Climbing Memphis Center
Tue 08:07:57 AM 34.0636 -88.0606 280° West 392 451 42,600 550 Climbing Memphis Center
Tue 08:08:57 AM 34.0869 -88.1978 282° West 387 445 43,000 200 Climbing Memphis Center
Tue 08:09:57 AM 34.1058 -88.3203 281° West 387 445 43,000  Level Memphis Center
Tue 08:10:57 AM 34.1267 -88.4400 282° West 387 445 43,000  Level Memphis Center
Tue 08:11:57 AM 34.1492 -88.5575 283° West 374 430 43,000  Level Memphis Center
Tue 08:12:57 AM 34.1697 -88.6778 282° West 368 423 43,000  Level Memphis Center
Tue 08:13:57 AM 34.1900 -88.7978 282° West 373 429 43,000  Level Memphis Center
Tue 08:14:57 AM 34.2103 -88.9131 282° West 366 421 43,000  Level Memphis Center
Tue 08:15:57 AM 34.2303 -89.0383 281° West 366 421 43,000  Level Memphis Center
Tue 08:16:57 AM 34.2503 -89.1586 281° West 371 427 43,000  Level Memphis Center
Tue 08:17:57 AM 34.2703 -89.2789 281° West 371 427 43,000  Level Memphis Center
Tue 08:18:57 AM 34.2878 -89.3894 281° West 371 427 43,000  Level Memphis Center
Tue 08:19:57 AM 34.3097 -89.5147 282° West 371 427 43,000  Level Memphis Center
Tue 08:20:57 AM 34.3292 -89.6403 281° West 377 434 43,000  Level Memphis Center
Tue 08:21:57 AM 34.3508 -89.7658 282° West 377 434 43,000  Level Memphis Center
Tue 08:22:57 AM 34.3700 -89.8892 281° West 377 434 43,000  Level Memphis Center
Tue 08:23:57 AM 34.3914 -90.0275 281° West 377 434 43,000  Level Memphis Center
Tue 08:24:57 AM 34.4106 -90.1533 280° West 377 434 43,000  Level Memphis Center
Tue 08:25:57 AM 34.4336 -90.2792 283° West 382 440 43,000  Level Memphis Center
Tue 08:26:57 AM 34.4522 -90.4025 280° West 387 445 43,000  Level Memphis Center
Tue 08:27:57 AM 34.4731 -90.5311 281° West 392 451 43,000  Level Memphis Center
Tue 08:28:57 AM 34.4917 -90.6569 280° West 392 451 43,000  Level Memphis Center
Tue 08:29:57 AM 34.5142 -90.7831 282° West 392 451 43,000  Level Memphis Center
Tue 08:30:57 AM 34.5306 -90.8967 280° West 392 451 43,000  Level Memphis Center
Tue 08:31:57 AM 34.5486 -91.0278 280° West 392 451 43,000  Level Memphis Center
Tue 08:32:57 AM 34.5667 -91.1542 280° West 392 451 43,000  Level Memphis Center
Tue 08:33:57 AM 34.5889 -91.2831 282° West 392 451 43,000  Level Memphis Center
Tue 08:34:57 AM 34.6067 -91.4094 280° West 392 451 43,000  Level Memphis Center
Tue 08:35:57 AM 34.6264 -91.5383 281° West 392 451 43,000  Level Memphis Center
Tue 08:36:58 AM 34.6478 -91.6800 280° West 392 451 43,000  Level Memphis Center
Tue 08:37:57 AM 34.6653 -91.8089 279° West 387 445 43,000  Level Memphis Center
Tue 08:38:57 AM 34.6844 -91.9356 280° West 387 445 43,000  Level Memphis Center
Tue 08:39:57 AM 34.7017 -92.0647 279° West 387 445 43,000  Level Memphis Center
Tue 08:40:57 AM 34.7206 -92.1964 280° West 392 451 43,000  Level Memphis Center
Tue 08:41:57 AM 34.7394 -92.3308 280° West 392 451 43,000  Level Memphis Center
Tue 08:42:57 AM 34.7558 -92.4653 278° West 397 457 43,000  Level Memphis Center
Tue 08:43:58 AM 34.7767 -92.5972 281° West 402 463 43,000  Level Memphis Center
Tue 08:44:57 AM 34.7950 -92.7242 280° West 397 457 43,000  Level Memphis Center
Tue 08:45:57 AM 34.8111 -92.8611 278° West 397 457 43,000  Level Memphis Center
Tue 08:46:57 AM 34.8294 -92.9908 280° West 397 457 43,000  Level Memphis Center
Tue 08:47:57 AM 34.8475 -93.1228 280° West 397 457 43,000  Level Memphis Center
Tue 08:48:57 AM 34.8653 -93.2550 279° West 397 457 43,000  Level Memphis Center
Tue 08:49:57 AM 34.8828 -93.3925 279° West 397 457 43,000  Level Memphis Center
Tue 08:50:57 AM 34.9006 -93.5247 279° West 397 457 43,000  Level Memphis Center
Tue 08:51:57 AM 34.9178 -93.6569 279° West 402 463 43,000  Level Memphis Center
Tue 08:52:57 AM 34.9350 -93.7919 279° West 407 468 43,000  Level Memphis Center
Tue 08:53:57 AM 34.9481 -93.9217 277° West 402 463 43,000  Level Memphis Center
Tue 08:54:57 AM 34.9692 -94.0569 281° West 402 463 43,000  Level Memphis Center
Tue 08:55:57 AM 34.9881 -94.1894 280° West 402 463 43,000  Level Memphis Center
Tue 08:56:57 AM 35.0028 -94.3244 278° West 407 468 43,000  Level Memphis Center
Tue 08:57:57 AM 35.0172 -94.4594 277° West 407 468 43,000  Level Memphis Center
Tue 08:58:30 AM 35.0247 -94.5233 278° West 409 471 43,000  Level Fort Worth Center
Tue 08:59:30 AM 35.0422 -94.6569 279° West 401 461 43,000  Level Fort Worth Center
Tue 09:00:30 AM 35.0597 -94.7933 279° West 407 468 43,000  Level Fort Worth Center
Tue 09:01:30 AM 35.0731 -94.9325 277° West 412 474 43,000  Level Fort Worth Center
Tue 09:02:30 AM 35.0903 -95.0664 279° West 412 474 43,000  Level Fort Worth Center
Tue 09:03:30 AM 35.1075 -95.2056 279° West 407 468 43,000  Level Fort Worth Center
Tue 09:04:30 AM 35.1200 -95.3397 277° West 407 468 43,000  Level Fort Worth Center
Tue 09:05:30 AM 35.1369 -95.4764 279° West 407 468 43,000  Level Fort Worth Center
Tue 09:06:30 AM 35.1514 -95.6133 277° West 407 468 43,000  Level Fort Worth Center
Tue 09:07:30 AM 35.1703 -95.7653 279° West 407 468 43,000  Level Fort Worth Center
Tue 09:08:30 AM 35.1803 -95.8972 275° West 407 468 43,000  Level Fort Worth Center
Tue 09:09:30 AM 35.1964 -96.0392 278° West 407 468 43,000  Level Fort Worth Center
Tue 09:10:30 AM 35.2125 -96.1761 278° West 412 474 43,000  Level Fort Worth Center
Tue 09:11:30 AM 35.2261 -96.3131 277° West 412 474 43,000  Level Fort Worth Center
Tue 09:12:30 AM 35.2397 -96.4478 277° West 407 468 43,000  Level Fort Worth Center
Tue 09:13:30 AM 35.2556 -96.5872 278° West 407 468 43,000  Level Fort Worth Center
Tue 09:14:30 AM 35.2689 -96.7244 277° West 407 468 43,000  Level Fort Worth Center
Tue 09:15:30 AM 35.2819 -96.8617 277° West 407 468 43,000  Level Fort Worth Center
Tue 09:16:30 AM 35.2972 -97.0017 278° West 407 468 43,000  Level Fort Worth Center
Tue 09:17:30 AM 35.3100 -97.1389 277° West 407 468 43,000  Level Fort Worth Center
Tue 09:18:30 AM 35.3269 -97.2633 280° West 407 468 43,000  Level Fort Worth Center
Tue 09:19:30 AM 35.3394 -97.4161 276° West 412 474 43,000  Level Fort Worth Center
Tue 09:20:30 AM 35.3497 -97.5458 276° West 412 474 43,000  Level Fort Worth Center
Tue 09:21:30 AM 35.3558 -97.6858 273° West 418 481 43,000  Level Fort Worth Center
Tue 09:22:30 AM 35.3556 -97.8233 270° West 418 481 43,000  Level Fort Worth Center
Tue 09:23:30 AM 35.3528 -97.9633 269° West 418 481 43,000  Level Fort Worth Center
Tue 09:24:30 AM 35.3500 -98.1033 269° West 418 481 43,000  Level Fort Worth Center
Tue 09:25:30 AM 35.3492 -98.2433 270° West 418 481 43,000  Level Fort Worth Center
Tue 09:26:30 AM 35.3461 -98.3833 269° West 418 481 43,000  Level Fort Worth Center
Tue 09:27:30 AM 35.3428 -98.5333 268° West 418 481 43,000  Level Fort Worth Center
Tue 09:28:30 AM 35.3372 -98.6733 267° West 413 475 43,000  Level Fort Worth Center
Tue 09:29:30 AM 35.3358 -98.8158 269° West 413 475 43,000  Level Fort Worth Center
Tue 09:30:30 AM 35.3319 -98.9531 268° West 413 475 43,000  Level Fort Worth Center
Tue 09:31:30 AM 35.3303 -99.0931 269° West 418 481 43,000  Level Fort Worth Center
Tue 09:32:30 AM 35.3261 -99.2353 268° West 418 481 43,000  Level Fort Worth Center
Tue 09:33:30 AM 35.3200 -99.3600 267° West 418 481 43,000  Level Fort Worth Center
Tue 09:34:12 AM 35.3203 -99.4622 270° West 413 475 43,000  Level Albuquerque Center
Tue 09:35:13 AM 35.3175 -99.6061 269° West 418 481 43,000  Level Albuquerque Center
Tue 09:36:14 AM 35.3136 -99.7469 268° West 414 476 43,000  Level Albuquerque Center
Tue 09:37:15 AM 35.3083 -99.8883 267° West 413 475 43,000  Level Albuquerque Center
Tue 09:38:16 AM 35.3025 -100.0294 267° West 413 475 43,000  Level Albuquerque Center
Tue 09:39:17 AM 35.2994 -100.1736 269° West 419 482 43,000  Level Albuquerque Center
Tue 09:40:18 AM 35.2936 -100.3144 267° West 415 478 43,000  Level Albuquerque Center
Tue 09:41:20 AM 35.2886 -100.4586 268° West 419 482 43,000  Level Albuquerque Center
Tue 09:42:21 AM 35.2836 -100.6014 268° West 419 482 43,000  Level Albuquerque Center
Tue 09:43:22 AM 35.2778 -100.7539 267° West 419 482 43,000  Level Albuquerque Center
Tue 09:44:23 AM 35.2719 -100.8969 267° West 421 484 43,000  Level Albuquerque Center
Tue 09:45:24 AM 35.2661 -101.0392 267° West 421 484 43,000  Level Albuquerque Center
Tue 09:46:25 AM 35.2594 -101.1806 267° West 418 481 43,000  Level Albuquerque Center
Tue 09:47:26 AM 35.2531 -101.3453 267° West 421 484 43,000  Level Albuquerque Center
Tue 09:48:28 AM 35.2486 -101.4897 268° West 422 486 43,000  Level Albuquerque Center
Tue 09:49:29 AM 35.2414 -101.6322 266° West 420 483 43,000  Level Albuquerque Center
Tue 09:50:30 AM 35.2322 -101.7667 265° West 425 489 43,000  Level Albuquerque Center
Tue 09:51:31 AM 35.2306 -101.9119 269° West 424 488 43,000  Level Albuquerque Center
Tue 09:52:33 AM 35.2256 -102.0542 268° West 422 486 43,000  Level Albuquerque Center
Tue 09:53:34 AM 35.2228 -102.2264 269° West 424 488 43,000  Level Albuquerque Center
Tue 09:54:35 AM 35.2186 -102.3692 268° West 422 486 43,000  Level Albuquerque Center
Tue 09:55:36 AM 35.2150 -102.5108 268° West 419 482 43,000  Level Albuquerque Center
Tue 09:56:38 AM 35.2117 -102.6539 268° West 421 484 43,000  Level Albuquerque Center
Tue 09:57:39 AM 35.2075 -102.7956 268° West 419 482 43,000  Level Albuquerque Center
Tue 09:58:40 AM 35.2039 -102.9386 268° West 421 484 43,000  Level Albuquerque Center
Tue 09:59:41 AM 35.1992 -103.0903 268° West 423 487 43,000  Level Albuquerque Center
Tue 10:00:43 AM 35.1961 -103.2356 269° West 424 488 43,000  Level Albuquerque Center
Tue 10:01:44 AM 35.1903 -103.3808 267° West 425 489 43,000  Level Albuquerque Center
Tue 10:02:45 AM 35.1856 -103.5264 268° West 425 489 43,000  Level Albuquerque Center
Tue 10:03:47 AM 35.1803 -103.6728 268° West 426 490 43,000  Level Albuquerque Center
Tue 10:04:48 AM 35.1731 -103.8172 267° West 424 488 43,000  Level Albuquerque Center
Tue 10:05:50 AM 35.1667 -103.9725 267° West 421 484 43,000  Level Albuquerque Center
Tue 10:06:51 AM 35.1600 -104.1136 267° West 419 482 43,000  Level Albuquerque Center
Tue 10:07:53 AM 35.1533 -104.2558 267° West 419 482 43,000  Level Albuquerque Center
Tue 10:08:54 AM 35.1461 -104.3978 266° West 420 483 43,000  Level Albuquerque Center
Tue 10:09:56 AM 35.1386 -104.5397 266° West 420 483 43,000  Level Albuquerque Center
Tue 10:10:57 AM 35.1300 -104.6894 266° West 422 486 43,000  Level Albuquerque Center
Tue 10:11:59 AM 35.1211 -104.8581 266° West 423 487 43,000  Level Albuquerque Center
Tue 10:13:00 AM 35.1136 -105.0042 266° West 427 491 43,000  Level Albuquerque Center
Tue 10:14:02 AM 35.1078 -105.1492 267° West 425 489 43,000  Level Albuquerque Center
Tue 10:15:03 AM 35.1039 -105.2944 268° West 424 488 43,000  Level Albuquerque Center
Tue 10:16:05 AM 35.0989 -105.4383 268° West 422 486 43,000  Level Albuquerque Center
Tue 10:17:07 AM 35.0942 -105.5817 268° West 420 483 43,000  Level Albuquerque Center
Tue 10:18:08 AM 35.0892 -105.7256 268° West 420 483 43,000  Level Albuquerque Center
Tue 10:19:10 AM 35.0836 -105.8700 267° West 422 486 43,000  Level Albuquerque Center
Tue 10:20:12 AM 35.0792 -106.0061 268° West 422 486 43,000  Level Albuquerque Center
Tue 10:21:13 AM 35.0714 -106.1492 266° West 422 486 43,000  Level Albuquerque Center
Tue 10:22:15 AM 35.0647 -106.3200 267° West 421 484 43,000  Level Albuquerque Center
Tue 10:23:17 AM 35.0592 -106.4617 267° West 419 482 43,000  Level Albuquerque Center
Tue 10:24:18 AM 35.0522 -106.6031 267° West 426 490 43,000  Level Albuquerque Center
Tue 10:25:20 AM 35.0456 -106.7619 267° West 423 487 43,000  Level Albuquerque Center
Tue 10:26:22 AM 35.0417 -106.8989 268° West 421 484 43,000  Level Albuquerque Center
Tue 10:27:24 AM 35.0386 -107.0581 269° West 420 483 43,000  Level Albuquerque Center
Tue 10:28:25 AM 35.0344 -107.1914 268° West 423 487 43,000  Level Albuquerque Center
Tue 10:29:27 AM 35.0297 -107.3375 268° West 429 494 43,000  Level Albuquerque Center
Tue 10:30:29 AM 35.0256 -107.4806 268° West 425 489 43,000  Level Albuquerque Center
Tue 10:31:31 AM 35.0211 -107.6239 268° West 423 487 43,000  Level Albuquerque Center
Tue 10:32:33 AM 35.0169 -107.7675 268° West 424 488 43,000  Level Albuquerque Center
Tue 10:33:34 AM 35.0119 -107.9308 268° West 423 487 43,000  Level Albuquerque Center
Tue 10:34:36 AM 35.0069 -108.0928 268° West 426 490 43,000  Level Albuquerque Center
Tue 10:35:38 AM 35.0022 -108.2308 268° West 426 490 43,000  Level Albuquerque Center
Tue 10:36:40 AM 34.9975 -108.3681 268° West 424 488 43,000  Level Albuquerque Center
Tue 10:37:42 AM 34.9914 -108.5306 267° West 426 490 43,000  Level Albuquerque Center
Tue 10:38:44 AM 34.9864 -108.6675 267° West 424 488 43,000  Level Albuquerque Center
Tue 10:39:46 AM 34.9794 -108.8272 267° West 422 486 43,000  Level Albuquerque Center
Tue 10:40:48 AM 34.9742 -108.9647 267° West 422 486 43,000  Level Albuquerque Center
Tue 10:41:50 AM 34.9678 -109.1267 267° West 425 489 43,000  Level Albuquerque Center
Tue 10:42:52 AM 34.9603 -109.2650 266° West 427 491 43,000  Level Albuquerque Center
Tue 10:43:54 AM 34.9497 -109.4281 266° West 429 494 43,000  Level Albuquerque Center
Tue 10:44:56 AM 34.9383 -109.5633 264° West 424 488 43,000  Level Albuquerque Center
Tue 10:45:58 AM 34.9272 -109.7253 265° West 426 490 43,000  Level Albuquerque Center
Tue 10:47:00 AM 34.9172 -109.8647 265° West 428 493 43,000  Level Albuquerque Center
Tue 10:48:02 AM 34.9075 -110.0067 265° West 434 499 43,000  Level Albuquerque Center
Tue 10:49:04 AM 34.8981 -110.1725 266° West 439 505 43,000  Level Albuquerque Center
Tue 10:50:06 AM 34.8872 -110.3097 265° West 432 497 43,000  Level Albuquerque Center
Tue 10:51:08 AM 34.8731 -110.4681 264° West 424 488 43,000  Level Albuquerque Center
Tue 10:52:10 AM 34.8622 -110.6089 265° West 429 494 43,000  Level Albuquerque Center
Tue 10:53:12 AM 34.8508 -110.7431 264° West 424 488 43,000  Level Albuquerque Center
Tue 10:54:14 AM 34.8350 -110.9158 264° West 427 491 43,000  Level Albuquerque Center
Tue 10:55:16 AM 34.8233 -111.0606 264° West 431 496 43,000  Level Albuquerque Center
Tue 10:56:18 AM 34.8131 -111.2081 265° West 436 502 43,000  Level Albuquerque Center
Tue 10:57:20 AM 34.8019 -111.3522 265° West 435 501 43,000  Level Albuquerque Center
Tue 10:58:22 AM 34.7897 -111.4936 264° West 430 495 43,000  Level Albuquerque Center
Tue 10:59:24 AM 34.7747 -111.6622 264° West 426 490 43,000  Level Albuquerque Center
Tue 11:00:27 AM 34.7625 -111.8053 264° West 423 487 43,000  Level Albuquerque Center
Tue 11:01:29 AM 34.7492 -111.9442 263° West 422 486 43,000  Level Albuquerque Center
Tue 11:02:31 AM 34.7367 -112.0847 264° West 422 486 43,000  Level Albuquerque Center
Tue 11:03:33 AM 34.7247 -112.2244 264° West 419 482 43,000  Level Albuquerque Center
Tue 11:04:35 AM 34.7119 -112.3678 264° West 419 482 43,000  Level Albuquerque Center
Tue 11:05:37 AM 34.6997 -112.5086 264° West 419 482 43,000  Level Albuquerque Center
Tue 11:06:39 AM 34.6789 -112.6764 261° West 419 482 43,000 -194 Level Albuquerque Center
Tue 11:07:41 AM 34.6628 -112.8164 262° West 420 483 42,600 -1,258 Descending Albuquerque Center
Tue 11:08:43 AM 34.6461 -112.9586 262° West 423 487 40,400 -2,177 Descending Albuquerque Center
Tue 11:09:45 AM 34.6286 -113.0989 261° West 421 484 38,100 -2,226 Descending Albuquerque Center
Tue 11:10:47 AM 34.6117 -113.2439 262° West 430 495 35,800 -2,274 Descending Albuquerque Center
Tue 11:11:49 AM 34.5922 -113.3925 261° West 441 507 33,400 -2,565 Descending Albuquerque Center
Tue 11:12:51 AM 34.5692 -113.5756 261° West 453 521 30,500 -1,645 Descending Albuquerque Center
Tue 11:13:53 AM 34.5458 -113.7164 259° West 461 531 30,000 -242 Descending Albuquerque Center
Tue 11:14:55 AM 34.5081 -113.8986 256° West 464 534 30,000  Level Albuquerque Center
Tue 11:15:57 AM 34.4769 -114.0531 256° West 468 539 30,000 -191 Level Albuquerque Center
Tue 11:16:29 AM 34.4625 -114.1278 257° West 461 531 29,700 -957 Descending Los Angeles Center
Tue 11:17:31 AM 34.4314 -114.2794 256° West 464 534 28,500 -1,161 Descending Los Angeles Center
Tue 11:18:33 AM 34.4014 -114.4272 256° West 455 524 27,300 -1,161 Descending Los Angeles Center
Tue 11:19:35 AM 34.3700 -114.5758 256° West 457 526 26,100 -1,139 Descending Los Angeles Center
Tue 11:20:50 AM 34.3342 -114.7475 256° West 441 507 24,700 -1,270 Descending Los Angeles Center
Tue 11:21:52 AM 34.2992 -114.9125 256° West 428 493 23,200 -1,597 Descending Los Angeles Center
Tue 11:22:54 AM 34.2700 -115.0481 255° West 421 484 21,400 -1,728 Descending Los Angeles Center
Tue 11:23:57 AM 34.2328 -115.1719 250° West 394 453 19,600 -1,839 Descending Los Angeles Center
Tue 11:24:58 AM 34.1831 -115.2867 242° Southwest 385 443 17,600 -1,854 Descending Los Angeles Center
Tue 11:26:00 AM 34.1356 -115.3981 243° Southwest 375 432 15,800 -1,968 Descending Los Angeles Center
Tue 11:27:03 AM 34.0811 -115.5256 243° Southwest 360 414 13,500 -1,968 Descending Los Angeles Center
Tue 11:28:05 AM 34.0375 -115.6286 243° Southwest 349 402 11,700 -1,694 Descending Los Angeles Center
Tue 11:29:07 AM 33.9922 -115.7297 242° Southwest 347 399 10,000 -871 Descending Los Angeles Center
Tue 11:30:09 AM 33.9492 -115.8311 243° Southwest 344 396 9,900 -48 Descending Los Angeles Center
Tue 11:31:11 AM 33.9058 -115.9322 243° Southwest 342 394 9,900 -435 Level Los Angeles Center
Tue 11:32:13 AM 33.8900 -116.0214 258° West 289 333 9,000 -1,306 Descending Los Angeles Center
Tue 11:33:15 AM 33.8414 -116.0975 232° Southwest 258 297 7,200 -1,500 Descending Los Angeles Center
Tue 11:34:17 AM 33.7942 -116.1558 226° Southwest 244 281 5,900 -1,731 Descending Los Angeles Center
Tue 11:36:36 AM 33.7167 -116.2167 213° Southwest 146 168 1,400 -1,942 Descending Southern California TRACON

Login

Don't have an account? Register now (free) for customized features, flight alerts, and more!